Time;durP1;ratioP1;P1;durP2;ratioP2;P2;SDS_P1;SDS_P2;PMS_P1;PMS_P2;Temp;Humidity;BMP_temperature;BMP_pressure;BME280_temperature;BME280_humidity;BME280_pressure;Samples;Min_cycle;Max_cycle;Signal;HPM_P1;HPM_P2
2024/04/12 00:01:44;;;;;;;;;;;;;;;13.63;59.20;102330.82;107523;1255;100649;-64
2024/04/12 00:04:16;;;;;;;;;;;;;;;13.65;59.32;102328.48;107537;1253;100544;-64
2024/04/12 00:06:46;;;;;;;;;;;;;;;13.65;59.24;102330.11;107551;1256;114695;-63
2024/04/12 00:09:20;;;;;;;;;;;;;;;13.65;59.36;102329.20;107495;1254;108374;-64
2024/04/12 00:11:50;;;;;;;;;;;;;;;13.64;59.40;102335.79;107495;1257;107401;-64
2024/04/12 00:14:19;;;;;;;;;;;;;;;13.64;59.00;102337.09;107490;1254;100430;-65
2024/04/12 00:16:52;;;;;;;;;;;;;;;13.64;59.30;102342.16;107609;1254;100642;-62
2024/04/12 00:19:23;;;;;;;;;;;;;;;13.61;59.52;102339.83;107566;1251;114662;-63
2024/04/12 00:21:56;;;;;;;;;;;;;;;13.58;59.45;102336.08;107559;1257;108521;-63
2024/04/12 00:24:25;;;;;;;;;;;;;;;13.55;59.59;102336.82;107564;1254;106955;-64
2024/04/12 00:26:54;;;;;;;;;;;;;;;13.51;60.11;102331.02;107613;1252;100531;-64
2024/04/12 00:29:26;;;;;;;;;;;;;;;13.47;60.36;102332.06;107573;1254;100532;-63
2024/04/12 00:31:55;;;;;;;;;;;;;;;13.41;60.42;102328.86;107555;1254;114464;-64
2024/04/12 00:34:27;;;;;;;;;;;;;;;13.39;60.10;102330.29;107534;1255;107455;-64
2024/04/12 00:37:06;;;;;;;;;;;;;;;13.37;60.05;102331.88;107617;1252;108216;-63
2024/04/12 00:39:35;;;;;;;;;;;;;;;13.33;59.90;102332.34;107620;1254;100679;-65
2024/04/12 00:42:07;;;;;;;;;;;;;;;13.29;60.15;102338.23;107565;1253;101929;-65
2024/04/12 00:44:41;;;;;;;;;;;;;;;13.25;60.48;102336.00;107653;1254;113583;-64
2024/04/12 00:47:11;;;;;;;;;;;;;;;13.21;60.40;102340.92;107583;1255;107915;-64
2024/04/12 00:49:51;;;;;;;;;;;;;;;13.16;60.48;102342.75;107603;1256;106903;-64
2024/04/12 00:52:23;;;;;;;;;;;;;;;13.14;60.21;102344.70;107513;1254;100648;-64
2024/04/12 00:55:03;;;;;;;;;;;;;;;13.11;60.85;102346.95;107538;1255;100494;-64
2024/04/12 00:57:35;;;;;;;;;;;;;;;13.04;60.75;102345.31;107644;1257;113345;-65
2024/04/12 01:00:08;;;;;;;;;;;;;;;13.00;60.84;102348.66;107644;1256;107468;-64
2024/04/12 01:02:40;;;;;;;;;;;;;;;12.97;60.90;102349.23;107662;1251;107525;-64
2024/04/12 01:05:13;;;;;;;;;;;;;;;12.95;60.65;102351.58;107625;1253;100603;-63
2024/04/12 01:07:52;;;;;;;;;;;;;;;12.95;60.54;102349.88;107585;1254;100618;-63
2024/04/12 01:10:30;;;;;;;;;;;;;;;12.96;60.62;102351.81;107555;1254;113636;-63
2024/04/12 01:13:02;;;;;;;;;;;;;;;12.93;61.05;102346.80;107558;1251;107971;-63
2024/04/12 01:15:32;;;;;;;;;;;;;;;12.92;60.87;102346.52;107557;1251;108067;-63
2024/04/12 01:18:04;;;;;;;;;;;;;;;12.93;60.86;102347.04;107514;1251;100616;-63
2024/04/12 01:20:35;;;;;;;;;;;;;;;12.92;60.83;102344.95;107634;1251;100596;-63
2024/04/12 01:23:05;;;;;;;;;;;;;;;12.91;60.85;102342.23;107593;1254;114922;-64
2024/04/12 01:25:34;;;;;;;;;;;;;;;12.91;61.04;102342.98;107560;1251;108345;-62
2024/04/12 01:28:03;;;;;;;;;;;;;;;12.91;60.94;102345.51;107495;1254;106627;-63
2024/04/12 01:30:34;;;;;;;;;;;;;;;12.91;60.97;102345.38;107478;1251;100536;-63
2024/04/12 01:33:06;;;;;;;;;;;;;;;12.89;61.30;102346.41;107495;1254;100531;-63
2024/04/12 01:35:34;;;;;;;;;;;;;;;12.85;61.16;102345.95;107643;1251;115076;-63
2024/04/12 01:38:16;;;;;;;;;;;;;;;12.80;60.98;102344.70;107553;1251;108621;-63
2024/04/12 01:40:57;;;;;;;;;;;;;;;12.73;60.70;102339.45;107396;1253;107628;-64
2024/04/12 01:43:28;;;;;;;;;;;;;;;12.72;60.67;102345.48;107533;1251;100611;-62
2024/04/12 01:45:56;;;;;;;;;;;;;;;12.72;60.88;102348.89;107532;1251;100499;-63
2024/04/12 01:48:25;;;;;;;;;;;;;;;12.69;60.62;102354.34;107508;1251;113566;-63
2024/04/12 01:50:53;;;;;;;;;;;;;;;12.65;60.64;102352.30;107485;1251;107561;-63
2024/04/12 01:53:22;;;;;;;;;;;;;;;12.61;60.68;102356.68;107392;1251;108128;-63
2024/04/12 01:55:51;;;;;;;;;;;;;;;12.58;61.05;102352.95;107481;1253;100555;-63
2024/04/12 01:58:20;;;;;;;;;;;;;;;12.55;61.30;102356.56;107559;1255;100539;-63
2024/04/12 02:00:49;;;;;;;;;;;;;;;12.51;61.66;102356.14;107586;1253;114420;-63
2024/04/12 02:03:17;;;;;;;;;;;;;;;12.41;61.19;102359.01;107628;1254;108686;-63
2024/04/12 02:05:48;;;;;;;;;;;;;;;12.33;61.10;102350.59;107578;1253;108885;-64
2024/04/12 02:08:19;;;;;;;;;;;;;;;12.28;61.37;102348.77;107532;1254;100593;-64
2024/04/12 02:10:48;;;;;;;;;;;;;;;12.27;61.22;102353.20;107549;1252;100431;-64
2024/04/12 02:13:20;;;;;;;;;;;;;;;12.27;61.08;102358.94;107581;1255;114655;-63
2024/04/12 02:15:53;;;;;;;;;;;;;;;12.27;61.40;102359.79;107514;1254;107953;-64
2024/04/12 02:18:22;;;;;;;;;;;;;;;12.26;61.54;102362.94;107625;1253;107625;-63
2024/04/12 02:20:52;;;;;;;;;;;;;;;12.27;61.47;102361.47;107482;1254;100443;-64
2024/04/12 02:23:21;;;;;;;;;;;;;;;12.28;61.33;102362.11;107595;1253;100414;-63
2024/04/12 02:25:51;;;;;;;;;;;;;;;12.27;61.25;102368.47;107634;1254;113973;-63
2024/04/12 02:28:19;;;;;;;;;;;;;;;12.26;61.15;102372.32;107619;1254;107904;-64
2024/04/12 02:30:54;;;;;;;;;;;;;;;12.26;60.86;102372.50;107631;1254;108270;-67
2024/04/12 02:33:25;;;;;;;;;;;;;;;12.25;60.91;102374.38;107571;1254;100545;-63
2024/04/12 02:36:11;;;;;;;;;;;;;;;12.21;61.01;102379.08;107574;1251;100506;-63
2024/04/12 02:38:40;;;;;;;;;;;;;;;12.18;61.06;102377.14;107592;1250;113631;-63
2024/04/12 02:41:13;;;;;;;;;;;;;;;12.15;61.09;102382.78;107513;1254;107486;-63
2024/04/12 02:43:49;;;;;;;;;;;;;;;12.10;61.13;102377.18;107534;1254;107683;-65
2024/04/12 02:46:17;;;;;;;;;;;;;;;12.07;61.43;102379.57;107642;1253;100519;-64
2024/04/12 02:48:48;;;;;;;;;;;;;;;12.01;61.69;102382.28;107633;1254;100404;-64
2024/04/12 02:51:18;;;;;;;;;;;;;;;11.98;61.73;102387.20;107616;1254;114496;-64
2024/04/12 02:53:50;;;;;;;;;;;;;;;11.95;61.82;102388.29;107668;1254;108475;-64
2024/04/12 02:56:22;;;;;;;;;;;;;;;11.92;62.01;102392.59;107472;1251;108211;-63
2024/04/12 02:58:54;;;;;;;;;;;;;;;11.87;61.84;102397.04;107639;1254;100565;-63
2024/04/12 03:01:26;;;;;;;;;;;;;;;11.78;62.27;102397.35;107623;1254;100407;-62
2024/04/12 03:03:55;;;;;;;;;;;;;;;11.58;63.72;102402.77;107614;1254;114235;-64
2024/04/12 03:06:27;;;;;;;;;;;;;;;11.38;64.47;102399.06;107675;1251;108469;-64
2024/04/12 03:08:59;;;;;;;;;;;;;;;11.24;65.57;102399.96;107595;1254;106867;-64
2024/04/12 03:11:34;;;;;;;;;;;;;;;11.14;65.79;102400.44;107618;1256;100539;-64
2024/04/12 03:14:08;;;;;;;;;;;;;;;11.10;65.44;102397.09;107621;1252;100561;-64
2024/04/12 03:16:37;;;;;;;;;;;;;;;11.15;65.31;102398.95;107605;1253;114062;-64
2024/04/12 03:19:07;;;;;;;;;;;;;;;11.18;65.21;102397.84;107637;1254;107801;-64
2024/04/12 03:21:36;;;;;;;;;;;;;;;11.25;64.80;102402.58;107628;1254;108025;-63
2024/04/12 03:24:04;;;;;;;;;;;;;;;11.32;64.64;102400.38;107622;1254;100525;-64
2024/04/12 03:26:33;;;;;;;;;;;;;;;11.36;64.42;102402.08;107637;1251;101013;-63
2024/04/12 03:29:05;;;;;;;;;;;;;;;11.42;64.45;102402.04;107582;1251;114338;-63
2024/04/12 03:31:38;;;;;;;;;;;;;;;11.47;63.97;102402.98;107604;1251;107204;-65
2024/04/12 03:34:09;;;;;;;;;;;;;;;11.49;64.07;102408.79;107557;1251;106975;-64
2024/04/12 03:41:58;;;;;;;;;;;;;;;11.45;65.29;102413.48;107644;1251;114100;-64
2024/04/12 03:44:31;;;;;;;;;;;;;;;11.35;66.23;102418.83;107586;1251;108610;-64
2024/04/12 03:47:07;;;;;;;;;;;;;;;11.19;66.91;102423.13;107498;1251;108118;-64
2024/04/12 03:49:40;;;;;;;;;;;;;;;11.08;67.71;102423.27;107518;1251;101336;-64
2024/04/12 03:52:11;;;;;;;;;;;;;;;11.04;68.05;102426.02;107525;1251;100510;-63
2024/04/12 03:54:40;;;;;;;;;;;;;;;11.10;67.53;102430.48;107543;1254;114912;-64
2024/04/12 03:57:09;;;;;;;;;;;;;;;11.21;67.58;102424.96;107577;1254;108655;-64
2024/04/12 03:59:38;;;;;;;;;;;;;;;11.29;67.42;102430.17;107578;1255;107806;-64
2024/04/12 04:02:07;;;;;;;;;;;;;;;11.42;67.07;102428.63;107599;1253;100645;-64
2024/04/12 04:04:37;;;;;;;;;;;;;;;11.59;66.74;102430.52;107618;1254;100535;-64
2024/04/12 04:07:05;;;;;;;;;;;;;;;11.77;66.51;102437.23;107635;1254;113501;-64
2024/04/12 04:09:35;;;;;;;;;;;;;;;11.93;66.09;102433.51;107575;1254;108827;-65
2024/04/12 04:12:04;;;;;;;;;;;;;;;12.06;65.80;102435.73;107533;1257;107844;-64
2024/04/12 04:14:32;;;;;;;;;;;;;;;12.14;65.84;102438.05;107512;1253;100619;-62
2024/04/12 04:17:03;;;;;;;;;;;;;;;12.18;65.58;102441.01;107529;1254;100392;-63
2024/04/12 04:19:35;;;;;;;;;;;;;;;12.26;65.46;102437.23;107531;1252;114112;-64
2024/04/12 04:22:21;;;;;;;;;;;;;;;12.34;65.19;102439.20;107498;1256;108501;-64
2024/04/12 04:24:53;;;;;;;;;;;;;;;12.48;65.46;102443.61;107519;1254;108197;-63
2024/04/12 04:27:21;;;;;;;;;;;;;;;12.59;65.47;102447.52;107575;1253;100991;-62
2024/04/12 04:29:55;;;;;;;;;;;;;;;12.69;65.22;102447.94;107568;1254;100590;-64
2024/04/12 04:32:25;;;;;;;;;;;;;;;12.79;64.89;102442.48;107543;1254;113414;-63
2024/04/12 04:34:55;;;;;;;;;;;;;;;12.85;64.42;102443.20;107538;1256;108135;-64
2024/04/12 04:37:29;;;;;;;;;;;;;;;12.94;64.31;102447.05;107580;1252;108441;-66
2024/04/12 04:40:09;;;;;;;;;;;;;;;12.95;63.65;102447.52;107597;1254;100542;-66
2024/04/12 04:42:38;;;;;;;;;;;;;;;12.87;63.54;102445.56;107636;1253;100427;-64
2024/04/12 04:45:08;;;;;;;;;;;;;;;12.85;63.49;102449.86;107614;1252;113950;-64
2024/04/12 04:47:39;;;;;;;;;;;;;;;12.89;63.64;102449.59;107664;1254;107357;-63
2024/04/12 04:50:08;;;;;;;;;;;;;;;12.94;63.62;102449.38;107609;1254;108458;-63
2024/04/12 04:52:37;;;;;;;;;;;;;;;13.00;63.38;102446.97;107548;1254;100568;-62
2024/04/12 04:55:07;;;;;;;;;;;;;;;13.04;63.39;102448.33;107607;1255;100433;-63
2024/04/12 04:57:35;;;;;;;;;;;;;;;13.08;63.23;102451.05;107667;1253;113378;-62
2024/04/12 05:00:06;;;;;;;;;;;;;;;13.19;62.96;102450.34;107622;1254;107046;-64
2024/04/12 05:02:35;;;;;;;;;;;;;;;13.22;62.83;102450.42;107605;1253;108750;-63
2024/04/12 05:05:04;;;;;;;;;;;;;;;13.28;62.73;102454.88;107609;1253;100386;-62
2024/04/12 05:07:34;;;;;;;;;;;;;;;13.33;62.73;102456.14;107639;1251;100593;-63
2024/04/12 05:10:14;;;;;;;;;;;;;;;13.30;62.72;102455.23;107474;1254;114880;-63
2024/04/12 05:12:42;;;;;;;;;;;;;;;13.28;62.67;102455.00;107613;1254;108421;-63
2024/04/12 05:15:30;;;;;;;;;;;;;;;13.34;62.77;102458.57;107586;1252;108051;-63
2024/04/12 05:18:03;;;;;;;;;;;;;;;13.39;62.75;102457.33;107579;1253;100523;-64
2024/04/12 05:20:41;;;;;;;;;;;;;;;13.41;62.74;102457.35;107646;1254;100507;-64
2024/04/12 05:23:23;;;;;;;;;;;;;;;13.46;62.71;102455.21;107635;1254;113472;-63
2024/04/12 05:25:53;;;;;;;;;;;;;;;13.47;62.89;102460.16;107504;1251;106888;-64
2024/04/12 05:28:26;;;;;;;;;;;;;;;13.47;62.78;102461.79;107425;1251;108276;-64
2024/04/12 05:30:54;;;;;;;;;;;;;;;13.48;62.86;102460.64;107424;1251;100411;-64
2024/04/12 05:33:24;;;;;;;;;;;;;;;13.47;62.91;102459.83;107504;1251;101064;-64
2024/04/12 05:35:53;;;;;;;;;;;;;;;13.51;62.83;102463.48;107597;1250;114648;-64
2024/04/12 05:38:21;;;;;;;;;;;;;;;13.53;62.79;102460.50;107537;1251;108706;-64
2024/04/12 05:40:53;;;;;;;;;;;;;;;13.53;62.83;102462.30;107604;1254;108708;-64
2024/04/12 05:43:23;;;;;;;;;;;;;;;13.59;62.75;102465.45;107616;1254;100600;-63
2024/04/12 05:45:51;;;;;;;;;;;;;;;13.71;62.66;102460.56;107654;1255;100452;-64
2024/04/12 05:48:21;;;;;;;;;;;;;;;13.87;62.58;102464.27;107395;1254;115573;-63
2024/04/12 05:50:53;;;;;;;;;;;;;;;14.01;62.24;102467.51;107621;1254;108625;-64
2024/04/12 05:53:30;;;;;;;;;;;;;;;14.10;61.95;102465.55;107530;1251;106987;-64
2024/04/12 05:58:50;;;;;;;;;;;;;;;14.30;61.56;102463.66;107658;1251;100481;-63
2024/04/12 06:01:24;;;;;;;;;;;;;;;14.37;61.29;102468.22;107630;1253;115010;-64
2024/04/12 06:03:54;;;;;;;;;;;;;;;14.41;61.15;102465.52;107650;1254;107949;-64
2024/04/12 06:06:24;;;;;;;;;;;;;;;14.51;61.08;102465.86;107666;1256;105967;-65
2024/04/12 06:08:53;;;;;;;;;;;;;;;14.63;60.90;102461.51;107624;1254;100539;-63
2024/04/12 06:11:22;;;;;;;;;;;;;;;14.73;60.52;102468.09;107625;1253;100522;-64
2024/04/12 06:13:53;;;;;;;;;;;;;;;14.84;60.36;102467.10;107663;1253;113990;-64
2024/04/12 06:16:23;;;;;;;;;;;;;;;14.90;59.93;102468.41;107552;1252;108665;-63
2024/04/12 06:18:51;;;;;;;;;;;;;;;14.96;59.74;102465.54;107545;1254;108123;-62
2024/04/12 06:21:20;;;;;;;;;;;;;;;14.99;59.36;102468.36;107528;1253;100539;-64
2024/04/12 06:23:54;;;;;;;;;;;;;;;15.05;59.44;102472.45;107541;1254;100545;-64
2024/04/12 06:26:23;;;;;;;;;;;;;;;15.15;59.35;102468.01;107558;1254;114813;-64
2024/04/12 06:28:54;;;;;;;;;;;;;;;15.25;59.26;102469.42;107536;1253;107177;-64
2024/04/12 06:31:34;;;;;;;;;;;;;;;15.32;58.87;102467.38;107473;1256;108480;-65
2024/04/12 06:34:12;;;;;;;;;;;;;;;15.34;58.23;102469.75;107529;1253;100415;-66
2024/04/12 06:36:45;;;;;;;;;;;;;;;15.31;58.25;102469.44;107596;1251;100520;-64
2024/04/12 06:39:15;;;;;;;;;;;;;;;15.26;58.10;102470.02;107497;1251;114095;-64
2024/04/12 06:41:45;;;;;;;;;;;;;;;15.26;58.21;102471.30;107509;1250;107504;-64
2024/04/12 06:44:19;;;;;;;;;;;;;;;15.35;58.28;102470.00;107410;1254;107041;-63
2024/04/12 06:46:51;;;;;;;;;;;;;;;15.48;58.23;102466.02;107573;1254;101061;-63
2024/04/12 06:49:27;;;;;;;;;;;;;;;15.61;57.91;102460.50;107579;1256;100671;-64
2024/04/12 06:52:09;;;;;;;;;;;;;;;15.70;57.72;102459.36;107552;1254;115645;-64
2024/04/12 06:54:42;;;;;;;;;;;;;;;15.87;57.68;102459.05;107528;1254;108580;-65
2024/04/12 06:57:21;;;;;;;;;;;;;;;16.05;57.54;102459.23;107573;1253;108157;-65
2024/04/12 06:59:53;;;;;;;;;;;;;;;16.22;57.02;102462.98;107576;1252;100626;-64
2024/04/12 07:02:26;;;;;;;;;;;;;;;16.40;56.84;102461.64;107663;1252;100499;-63
2024/04/12 07:04:56;;;;;;;;;;;;;;;16.57;56.40;102465.08;107651;1254;113954;-63
2024/04/12 07:07:25;;;;;;;;;;;;;;;16.71;55.75;102465.66;107666;1254;108546;-64
2024/04/12 07:09:59;;;;;;;;;;;;;;;16.76;54.61;102467.41;107553;1253;108239;-63
2024/04/12 07:12:30;;;;;;;;;;;;;;;16.87;54.79;102467.86;107528;1254;100528;-66
2024/04/12 07:14:59;;;;;;;;;;;;;;;17.01;53.96;102462.14;107568;1254;100538;-65
2024/04/12 07:17:28;;;;;;;;;;;;;;;17.10;53.83;102465.46;107573;1254;113924;-65
2024/04/12 07:19:57;;;;;;;;;;;;;;;17.22;53.82;102462.78;107549;1254;107920;-63
2024/04/12 07:22:26;;;;;;;;;;;;;;;17.35;53.19;102465.78;107429;1256;107829;-64
2024/04/12 07:24:55;;;;;;;;;;;;;;;17.47;52.93;102467.56;107472;1252;100564;-62
2024/04/12 07:27:27;;;;;;;;;;;;;;;17.60;52.21;102461.89;107617;1253;100530;-63
2024/04/12 07:29:57;;;;;;;;;;;;;;;17.70;52.21;102461.85;107530;1253;113452;-64
2024/04/12 07:32:34;;;;;;;;;;;;;;;17.82;52.13;102463.50;107645;1254;107209;-66
2024/04/12 07:35:26;;;;;;;;;;;;;;;17.96;51.85;102465.90;107601;1251;108825;-65
2024/04/12 07:37:59;;;;;;;;;;;;;;;18.02;50.20;102464.65;107392;1253;100613;-65
2024/04/12 07:40:34;;;;;;;;;;;;;;;18.07;50.84;102464.48;107480;1253;100721;-64
2024/04/12 07:43:12;;;;;;;;;;;;;;;18.12;49.70;102467.98;107482;1253;114024;-66
2024/04/12 07:45:56;;;;;;;;;;;;;;;18.02;49.09;102465.14;104283;1290;635055;-63
2024/04/12 07:48:25;;;;;;;;;;;;;;;18.04;49.94;102466.96;106734;1264;95208;-64
2024/04/12 07:51:00;;;;;;;;;;;;;;;18.19;49.76;102467.92;106657;1267;95029;-65
2024/04/12 07:53:34;;;;;;;;;;;;;;;18.33;49.08;102456.98;106622;1267;109625;-63
2024/04/12 07:58:40;;;;;;;;;;;;;;;18.48;47.99;102464.61;106074;1264;853214;-64
2024/04/12 08:01:10;;;;;;;;;;;;;;;18.35;47.30;102468.93;106707;1269;95251;-64
2024/04/12 08:03:39;;;;;;;;;;;;;;;18.11;47.40;102470.09;106740;1264;95020;-64
2024/04/12 08:06:18;;;;;;;;;;;;;;;17.99;47.83;102470.16;106752;1264;109350;-65
2024/04/12 08:08:47;;;;;;;;;;;;;;;18.00;47.60;102468.59;106782;1269;107372;-64
2024/04/12 08:11:33;;;;;;;;;;;;;;;18.09;48.26;102468.11;106723;1263;107177;-63
2024/04/12 08:14:06;;;;;;;;;;;;;;;18.40;48.32;102465.00;106733;1263;96495;-63
2024/04/12 08:16:38;;;;;;;;;;;;;;;18.72;47.95;102462.34;106785;1264;96562;-63
2024/04/12 08:19:14;;;;;;;;;;;;;;;18.97;47.39;102461.21;106727;1264;111331;-64
2024/04/12 08:21:43;;;;;;;;;;;;;;;19.23;47.05;102458.34;106721;1264;107282;-64
2024/04/12 08:24:14;;;;;;;;;;;;;;;19.46;46.75;102457.54;106735;1264;108211;-64
2024/04/12 08:26:47;;;;;;;;;;;;;;;19.68;46.23;102453.06;106768;1263;96481;-64
2024/04/12 08:29:26;;;;;;;;;;;;;;;19.95;45.67;102452.27;106753;1264;96601;-64
2024/04/12 08:34:33;;;;;;;;;;;;;;;20.37;43.23;102444.48;106795;1263;108375;-64
2024/04/12 08:37:03;;;;;;;;;;;;;;;20.49;42.93;102448.14;106786;1266;107299;-65
2024/04/12 08:39:42;;;;;;;;;;;;;;;20.59;43.01;102448.23;106862;1263;96472;-67
2024/04/12 08:42:14;;;;;;;;;;;;;;;20.80;41.95;102446.77;106707;1263;96494;-65
2024/04/12 08:44:44;;;;;;;;;;;;;;;20.90;41.85;102444.42;107046;1261;108594;-65
2024/04/12 08:47:16;;;;;;;;;;;;;;;21.04;41.46;102445.64;107023;1263;107601;-63
2024/04/12 08:49:48;;;;;;;;;;;;;;;21.15;41.24;102442.88;107018;1260;107515;-64
2024/04/12 08:52:28;;;;;;;;;;;;;;;21.21;41.09;102436.91;106966;1263;96479;-63
2024/04/12 08:54:59;;;;;;;;;;;;;;;21.32;40.83;102432.61;106976;1266;96491;-63
2024/04/12 08:57:28;;;;;;;;;;;;;;;21.49;40.82;102433.39;106897;1260;110841;-63
2024/04/12 08:59:58;;;;;;;;;;;;;;;21.65;40.25;102427.58;106899;1261;106877;-65
2024/04/12 09:02:31;;;;;;;;;;;;;;;21.77;39.43;102424.65;106974;1260;106783;-64
2024/04/12 09:04:59;;;;;;;;;;;;;;;21.83;40.14;102426.20;106912;1260;96488;-65
2024/04/12 09:07:27;;;;;;;;;;;;;;;22.04;39.57;102427.01;106913;1261;96485;-65
2024/04/12 09:09:59;;;;;;;;;;;;;;;22.18;39.29;102420.29;107037;1260;110520;-65
2024/04/12 09:12:27;;;;;;;;;;;;;;;22.40;38.87;102415.45;107003;1260;108666;-64
2024/04/12 09:14:55;;;;;;;;;;;;;;;22.63;38.09;102413.80;106974;1261;108155;-64
2024/04/12 09:17:28;;;;;;;;;;;;;;;22.75;38.03;102411.32;106891;1261;96503;-64
2024/04/12 09:19:57;;;;;;;;;;;;;;;22.93;38.02;102409.29;107291;1257;96489;-64
2024/04/12 09:22:28;;;;;;;;;;;;;;;23.07;37.54;102411.79;107280;1260;110028;-64
2024/04/12 09:24:58;;;;;;;;;;;;;;;23.23;36.86;102406.00;107268;1258;108688;-64
2024/04/12 09:27:34;;;;;;;;;;;;;;;23.28;36.85;102402.05;107267;1257;108213;-64
2024/04/12 09:32:50;;;;;;;;;;;;;;;23.31;36.33;102405.06;107308;1259;96481;-64
2024/04/12 09:32:52;;;;;;;;;;;;;;;23.22;36.29;102400.33;107270;1257;96517;-64
2024/04/12 09:35:26;;;;;;;;;;;;;;;23.32;36.48;102396.37;107261;1259;109257;-64
2024/04/12 09:38:05;;;;;;;;;;;;;;;23.50;36.29;102391.90;107281;1257;108934;-63
2024/04/12 09:40:34;;;;;;;;;;;;;;;23.60;35.37;102389.58;107237;1257;108464;-64
2024/04/12 09:45:45;;;;;;;;;;;;;;;23.50;35.83;102389.52;107267;1257;96491;-64
2024/04/12 10:39:44;;;;;;;;;;;;;;;29.38;26.23;102334.14;107396;1257;96478;-63
2024/04/12 10:42:12;;;;;;;;;;;;;;;29.64;26.92;102320.83;107411;1256;96369;-65
2024/04/12 10:44:40;;;;;;;;;;;;;;;30.19;27.18;102315.21;107372;1259;109898;-65
2024/04/12 10:47:12;;;;;;;;;;;;;;;30.77;25.71;102314.30;107290;1257;108324;-64
2024/04/12 10:49:43;;;;;;;;;;;;;;;31.04;25.35;102308.36;107250;1260;108124;-63
2024/04/12 10:52:13;;;;;;;;;;;;;;;31.26;25.17;102305.31;107218;1258;96585;-63
2024/04/12 10:54:43;;;;;;;;;;;;;;;31.37;23.55;102306.12;107298;1257;96369;-63
2024/04/12 10:57:13;;;;;;;;;;;;;;;31.09;23.84;102302.28;107269;1259;109440;-63
2024/04/12 10:59:44;;;;;;;;;;;;;;;31.00;24.35;102301.28;107319;1260;107699;-63
2024/04/12 11:02:12;;;;;;;;;;;;;;;31.21;24.16;102296.91;107375;1257;107766;-63
2024/04/12 11:07:47;;;;;;;;;;;;;;;31.64;23.06;102283.30;106898;1266;96497;-64
2024/04/12 11:10:25;;;;;;;;;;;;;;;31.63;23.26;102283.25;106831;1266;110440;-64
2024/04/12 11:13:06;;;;;;;;;;;;;;;31.64;23.21;102275.95;107117;1260;108122;-65
2024/04/12 11:32:23;;;;;;;;;;;;;;;32.77;21.56;102254.02;107441;1257;96478;-64
2024/04/12 11:34:51;;;;;;;;;;;;;;;32.97;21.09;102247.58;107407;1257;96487;-64
2024/04/12 11:37:24;;;;;;;;;;;;;;;33.07;21.32;102245.63;107282;1257;111090;-64
2024/04/12 11:39:53;;;;;;;;;;;;;;;33.41;21.58;102246.19;107316;1260;108554;-64
2024/04/12 11:42:23;;;;;;;;;;;;;;;33.35;20.57;102240.01;107274;1258;108243;-64
2024/04/12 11:44:53;;;;;;;;;;;;;;;33.39;20.87;102234.80;107230;1260;96582;-64
2024/04/12 11:47:23;;;;;;;;;;;;;;;33.65;20.39;102230.50;107289;1257;96910;-63
2024/04/12 11:49:57;;;;;;;;;;;;;;;33.89;19.73;102218.55;107288;1260;109794;-66
2024/04/12 11:52:26;;;;;;;;;;;;;;;33.61;19.05;102219.54;107279;1257;108040;-64
2024/04/12 11:54:56;;;;;;;;;;;;;;;33.18;20.16;102219.77;107320;1258;108621;-64
2024/04/12 11:57:27;;;;;;;;;;;;;;;33.25;20.15;102218.10;107335;1257;96549;-63
2024/04/12 11:59:59;;;;;;;;;;;;;;;33.13;19.89;102221.76;107318;1256;96496;-63
2024/04/12 12:02:42;;;;;;;;;;;;;;;32.69;19.63;102213.08;107341;1258;111123;-63
2024/04/12 12:05:16;;;;;;;;;;;;;;;32.54;20.29;102205.43;107287;1257;107340;-64
2024/04/12 12:07:45;;;;;;;;;;;;;;;32.69;20.47;102205.04;107250;1257;107812;-63
2024/04/12 12:10:14;;;;;;;;;;;;;;;32.58;20.17;102206.18;107264;1257;97862;-64
2024/04/12 12:12:43;;;;;;;;;;;;;;;33.02;20.43;102192.64;107324;1257;97729;-63
2024/04/12 12:15:14;;;;;;;;;;;;;;;33.50;19.95;102195.80;107298;1257;111417;-64
2024/04/12 12:17:43;;;;;;;;;;;;;;;34.00;19.59;102192.20;107335;1258;109139;-64
2024/04/12 12:20:17;;;;;;;;;;;;;;;34.39;19.31;102185.45;107233;1257;108258;-64
2024/04/12 12:22:49;;;;;;;;;;;;;;;34.84;18.76;102174.16;107270;1257;97799;-65
2024/04/12 12:25:17;;;;;;;;;;;;;;;35.00;18.71;102171.83;107279;1260;97742;-64
2024/04/12 12:27:45;;;;;;;;;;;;;;;35.28;18.49;102164.70;107213;1260;111375;-63
2024/04/12 12:30:18;;;;;;;;;;;;;;;35.52;18.05;102162.90;107296;1258;108499;-65
2024/04/12 12:32:49;;;;;;;;;;;;;;;35.14;17.60;102160.44;107302;1258;107718;-66
2024/04/12 12:35:22;;;;;;;;;;;;;;;34.39;17.91;102155.80;107291;1257;97935;-63
2024/04/12 12:37:51;;;;;;;;;;;;;;;34.54;18.00;102148.69;107400;1259;97924;-63
2024/04/12 12:40:21;;;;;;;;;;;;;;;34.55;17.97;102150.08;107375;1260;112063;-64
2024/04/12 12:42:51;;;;;;;;;;;;;;;34.25;18.12;102142.52;107286;1257;108096;-64
2024/04/12 12:45:20;;;;;;;;;;;;;;;34.65;18.24;102133.42;107237;1260;106890;-64
2024/04/12 12:47:48;;;;;;;;;;;;;;;35.10;18.03;102141.59;107250;1260;97843;-63
2024/04/12 12:50:19;;;;;;;;;;;;;;;34.86;17.39;102137.77;107288;1260;97806;-62
2024/04/12 12:52:49;;;;;;;;;;;;;;;34.93;17.65;102130.00;107301;1257;112498;-63
2024/04/12 12:55:20;;;;;;;;;;;;;;;35.28;17.49;102123.92;107294;1260;108419;-63
2024/04/12 12:57:50;;;;;;;;;;;;;;;35.46;17.53;102128.90;107396;1260;108420;-64
2024/04/12 13:00:19;;;;;;;;;;;;;;;35.73;17.22;102118.60;107357;1257;97843;-64
2024/04/12 13:02:50;;;;;;;;;;;;;;;35.30;17.06;102113.58;107294;1256;97832;-63
2024/04/12 13:05:19;;;;;;;;;;;;;;;35.18;17.40;102108.09;107280;1260;110627;-63
2024/04/12 13:07:49;;;;;;;;;;;;;;;34.59;17.53;102105.83;107242;1257;107824;-64
2024/04/12 13:10:19;;;;;;;;;;;;;;;34.69;17.65;102097.13;107240;1260;107191;-64
2024/04/12 13:12:51;;;;;;;;;;;;;;;34.54;17.72;102100.63;107264;1257;97973;-64
2024/04/12 13:15:19;;;;;;;;;;;;;;;34.21;17.96;102097.02;107316;1260;97732;-62
2024/04/12 13:17:49;;;;;;;;;;;;;;;34.53;18.01;102095.98;107293;1258;112327;-66
2024/04/12 13:20:20;;;;;;;;;;;;;;;34.97;17.97;102093.18;107320;1257;107247;-61
2024/04/12 13:22:48;;;;;;;;;;;;;;;35.57;17.17;102091.35;107242;1257;108563;-63
2024/04/12 13:25:17;;;;;;;;;;;;;;;35.65;17.06;102087.50;107250;1257;98257;-65
2024/04/12 13:27:47;;;;;;;;;;;;;;;36.08;17.07;102078.67;107253;1257;98492;-64
2024/04/12 13:30:15;;;;;;;;;;;;;;;36.00;17.24;102080.50;107262;1257;111938;-65
2024/04/12 13:32:48;;;;;;;;;;;;;;;35.17;16.92;102077.17;107304;1257;108767;-65
2024/04/12 13:35:21;;;;;;;;;;;;;;;34.27;17.87;102072.68;107248;1256;107356;-66
2024/04/12 13:37:49;;;;;;;;;;;;;;;34.27;17.92;102067.92;107368;1256;97864;-64
2024/04/12 13:40:18;;;;;;;;;;;;;;;34.04;17.76;102067.26;107365;1257;97832;-63
2024/04/12 13:42:48;;;;;;;;;;;;;;;33.72;18.25;102072.42;107344;1257;111621;-65
2024/04/12 13:50:56;;;;;;;;;;;;;;;34.63;18.16;102046.99;107391;1257;97826;-64
2024/04/12 13:53:36;;;;;;;;;;;;;;;34.89;17.48;102048.76;107384;1256;97806;-64
2024/04/12 13:56:39;;;;;;;;;;;;;;;34.87;17.40;102044.09;107365;1259;111759;-65
2024/04/12 13:59:10;;;;;;;;;;;;;;;34.54;17.38;102050.16;107312;1257;109000;-64
2024/04/12 14:01:42;;;;;;;;;;;;;;;34.48;17.98;102044.83;107350;1257;108946;-64
2024/04/12 14:04:10;;;;;;;;;;;;;;;35.17;18.13;102040.63;107254;1257;97928;-64
2024/04/12 14:06:38;;;;;;;;;;;;;;;35.90;17.57;102044.17;107247;1257;97905;-64
2024/04/12 14:09:12;;;;;;;;;;;;;;;36.41;16.96;102045.30;107278;1257;111388;-65
2024/04/12 14:11:42;;;;;;;;;;;;;;;36.90;16.37;102039.20;107268;1257;107632;-65
2024/04/12 14:14:10;;;;;;;;;;;;;;;37.47;16.19;102033.02;107279;1257;106449;-64